Elko Regional Airport Elko US
ICAO: KEKO
IATA: EKO
Category: Medium
Scheduled Services: Yes

Elevation: 5140 ft
TransAlt. 18000 ft.

Airport Communications:
ASOS:119.275
SALT LAKE CNTR:132.25
CTAF:123
UNICOM:123

KEKO Zoom In..

If you have problems with the map follow the link
https://www.worldairports.se/pages/airport.php?
ICAO=KEKO

Runways:

(A) RW 05 length 7214 ft width 150 ft
---- / hdg 53

(B) RW 12 length 2871 ft width 60 ft
---- / hdg 118

(C) RW 23 length 7214 ft width 150 ft
---- / hdg 233

(D) RW 30 length 2871 ft width 60 ft
---- / hdg 298

Location; KEKO
Day. 07 / Time. 07.56 Zulu
* Altimeter: 30.08
* Temperature: 04° c. 39.2°f.
* Wind from: 240° Speed 10 kn.
Dewpoint: -02° c.
Visibility: 10 Statute Miles.
Clouds: Clear (automated report).

KEKO 070756Z AUTO 24010KT 10SM CLR 04/M02 A3008 RMK AO2 SLP183 T00441017 400940000


Wind From 240°
Speed 10 kn.

 
 
jpsmedia worldairports.se 2019   terms of use